createdAt,value
2018-07-09T00:01:28.702Z,18.70
2018-07-09T00:03:59.049Z,18.70
2018-07-09T00:06:29.270Z,18.70
2018-07-09T00:08:59.561Z,18.60
2018-07-09T00:11:29.793Z,18.60
2018-07-09T00:14:00.194Z,18.60
2018-07-09T00:16:30.619Z,18.50
2018-07-09T00:19:00.937Z,18.50
2018-07-09T00:21:31.226Z,18.50
2018-07-09T00:24:01.778Z,18.40
2018-07-09T00:26:32.134Z,18.40
2018-07-09T00:29:08.875Z,18.30
2018-07-09T00:31:39.414Z,18.30
2018-07-09T00:34:09.692Z,18.30
2018-07-09T00:36:39.981Z,18.20
2018-07-09T00:39:10.250Z,18.20
2018-07-09T00:41:40.659Z,18.10
2018-07-09T00:44:10.912Z,18.10
2018-07-09T00:46:41.344Z,18.00
2018-07-09T00:49:11.758Z,18.00
2018-07-09T00:51:42.180Z,17.90
2018-07-09T00:54:12.714Z,17.90
2018-07-09T00:56:43.115Z,17.80
2018-07-09T00:59:13.398Z,17.80
2018-07-09T01:01:43.750Z,17.70
2018-07-09T01:04:14.032Z,17.70
2018-07-09T01:06:44.607Z,17.70
2018-07-09T01:09:14.842Z,17.70
2018-07-09T01:11:47.373Z,17.60
2018-07-09T01:14:17.653Z,17.60
2018-07-09T01:16:47.913Z,17.60
2018-07-09T01:19:18.372Z,17.50
2018-07-09T01:21:48.791Z,17.50
2018-07-09T01:24:19.171Z,17.50
2018-07-09T01:26:49.575Z,17.50
2018-07-09T01:29:19.873Z,17.40
2018-07-09T01:31:50.268Z,17.30
2018-07-09T01:34:20.689Z,17.30
2018-07-09T01:36:51.021Z,17.30
2018-07-09T01:39:21.260Z,17.30
2018-07-09T01:44:21.389Z,17.20
2018-07-09T01:46:51.633Z,17.10
2018-07-09T01:49:21.912Z,17.10
2018-07-09T01:51:52.231Z,17.00
2018-07-09T01:54:22.503Z,17.00
2018-07-09T01:56:52.791Z,17.00
2018-07-09T01:59:23.048Z,16.90
2018-07-09T02:01:53.411Z,16.90
2018-07-09T02:04:23.755Z,16.90
2018-07-09T02:06:54.151Z,16.80
2018-07-09T02:09:24.352Z,16.80
2018-07-09T02:11:54.735Z,16.80
2018-07-09T02:14:24.991Z,16.70
2018-07-09T02:16:55.275Z,16.70
2018-07-09T02:19:25.550Z,16.70
2018-07-09T02:21:55.897Z,16.70
2018-07-09T02:24:26.251Z,16.60
2018-07-09T02:26:56.553Z,16.60
2018-07-09T02:29:26.839Z,16.60
2018-07-09T02:31:57.192Z,16.50
2018-07-09T02:34:27.459Z,16.50
2018-07-09T02:36:57.735Z,16.50
2018-07-09T02:39:28.129Z,16.40
2018-07-09T02:41:58.352Z,16.40
2018-07-09T02:44:28.615Z,16.40
2018-07-09T02:46:58.893Z,16.40
2018-07-09T02:49:29.070Z,16.30
2018-07-09T02:51:59.371Z,16.30
2018-07-09T02:54:29.551Z,16.20
2018-07-09T02:56:59.853Z,16.20
2018-07-09T02:59:29.973Z,16.10
2018-07-09T03:02:00.275Z,16.10
2018-07-09T03:04:30.596Z,16.10
2018-07-09T03:07:00.833Z,16.00
2018-07-09T03:09:31.051Z,16.00
2018-07-09T03:12:01.366Z,16.00
2018-07-09T03:14:31.517Z,15.90
2018-07-09T03:17:01.787Z,15.90
2018-07-09T03:19:32.074Z,15.90
2018-07-09T03:22:02.370Z,15.90
2018-07-09T03:24:32.568Z,15.90
2018-07-09T03:27:02.875Z,15.80
2018-07-09T03:29:33.060Z,15.80
2018-07-09T03:32:03.333Z,15.80
2018-07-09T03:34:33.553Z,15.80
2018-07-09T03:37:03.781Z,15.70
2018-07-09T03:39:34.038Z,15.70
2018-07-09T03:42:04.373Z,15.70
2018-07-09T03:44:34.611Z,15.70
2018-07-09T03:47:04.902Z,15.60
2018-07-09T03:49:35.160Z,15.60
2018-07-09T03:52:05.409Z,15.60
2018-07-09T03:54:35.692Z,15.60
2018-07-09T03:57:06.194Z,15.60
2018-07-09T03:59:36.437Z,15.60
2018-07-09T04:02:06.706Z,15.60
2018-07-09T04:04:36.956Z,15.50
2018-07-09T04:07:07.250Z,15.50
2018-07-09T04:09:37.456Z,15.50
2018-07-09T04:12:08.791Z,15.50
2018-07-09T04:14:39.059Z,15.40
2018-07-09T04:17:09.275Z,15.50
2018-07-09T04:19:39.531Z,15.40
2018-07-09T04:22:09.955Z,15.40
2018-07-09T04:27:40.013Z,15.40
2018-07-09T04:30:10.306Z,15.40
2018-07-09T04:32:40.611Z,15.40
2018-07-09T04:35:10.847Z,15.40
2018-07-09T04:37:41.092Z,15.40
2018-07-09T04:40:11.453Z,15.40
2018-07-09T04:42:41.611Z,15.40
2018-07-09T04:45:11.961Z,15.40
2018-07-09T04:47:42.230Z,15.50
2018-07-09T04:50:12.587Z,15.50
2018-07-09T04:52:42.790Z,15.50
2018-07-09T04:55:13.053Z,15.50
2018-07-09T04:57:43.347Z,15.60
2018-07-09T05:00:13.671Z,15.60
2018-07-09T05:02:43.993Z,15.70
2018-07-09T05:05:14.449Z,15.70
2018-07-09T05:07:44.791Z,15.70
2018-07-09T05:10:15.121Z,15.80
2018-07-09T05:12:45.399Z,15.90
2018-07-09T05:15:15.692Z,15.90
2018-07-09T05:17:46.056Z,16.00
2018-07-09T05:20:16.310Z,16.00
2018-07-09T05:22:46.651Z,16.10
2018-07-09T05:25:16.894Z,16.20
2018-07-09T05:27:47.288Z,16.20
2018-07-09T05:30:17.621Z,16.20
2018-07-09T05:32:47.950Z,16.30
2018-07-09T05:35:18.290Z,16.40
2018-07-09T05:37:48.613Z,16.40
2018-07-09T05:40:19.052Z,16.50
2018-07-09T05:45:19.326Z,16.70
2018-07-09T05:47:49.810Z,16.80
2018-07-09T05:52:50.095Z,17.20
2018-07-09T05:55:20.434Z,17.40
2018-07-09T05:57:50.830Z,17.60
2018-07-09T06:00:21.232Z,17.80
2018-07-09T06:02:51.574Z,18.00
2018-07-09T06:05:22.057Z,18.20
2018-07-09T06:07:52.580Z,18.50
2018-07-09T06:10:22.935Z,18.70
2018-07-09T06:15:23.239Z,19.10
2018-07-09T06:17:53.494Z,19.20
2018-07-09T06:20:23.862Z,19.40
2018-07-09T06:22:54.376Z,19.60
2018-07-09T06:25:24.777Z,19.70
2018-07-09T06:27:55.115Z,19.90
2018-07-09T06:30:25.596Z,20.00
2018-07-09T06:32:56.061Z,20.10
2018-07-09T06:35:26.425Z,20.20
2018-07-09T06:37:56.831Z,20.30
2018-07-09T06:40:27.213Z,20.30
2018-07-09T06:42:57.537Z,20.20
2018-07-09T06:45:27.898Z,20.30
2018-07-09T06:47:58.298Z,20.30
2018-07-09T06:50:28.691Z,20.30
2018-07-09T06:52:59.073Z,20.20
2018-07-09T06:55:29.373Z,20.20
2018-07-09T06:57:59.776Z,20.20
2018-07-09T07:00:30.052Z,20.20
2018-07-09T07:03:00.523Z,20.10
2018-07-09T07:05:30.832Z,20.10
2018-07-09T07:08:01.290Z,20.10
2018-07-09T07:10:31.609Z,20.10
2018-07-09T07:13:01.993Z,20.10
2018-07-09T07:15:32.353Z,20.10
2018-07-09T07:18:02.796Z,20.10
2018-07-09T07:20:39.631Z,20.10
2018-07-09T07:23:10.031Z,20.10
2018-07-09T07:25:40.378Z,20.20
2018-07-09T07:28:10.781Z,20.20
2018-07-09T07:30:41.131Z,20.30
2018-07-09T07:33:11.677Z,20.40
2018-07-09T07:35:41.971Z,20.50
2018-07-09T07:40:42.209Z,20.50
2018-07-09T07:43:12.518Z,20.60
2018-07-09T07:45:43.015Z,20.70
2018-07-09T07:48:13.437Z,20.80
2018-07-09T07:50:43.735Z,20.90
2018-07-09T07:53:14.116Z,21.00
2018-07-09T07:55:44.561Z,21.00
2018-07-09T07:58:14.912Z,21.10
2018-07-09T08:00:45.315Z,21.10
2018-07-09T08:03:15.631Z,21.20
2018-07-09T08:05:46.051Z,21.20
2018-07-09T08:08:16.451Z,21.30
2018-07-09T08:10:46.934Z,21.30
2018-07-09T08:13:27.997Z,21.40
2018-07-09T08:15:47.911Z,21.40
2018-07-09T08:18:18.434Z,21.40
2018-07-09T08:20:48.732Z,21.40
2018-07-09T08:23:19.214Z,21.40
2018-07-09T08:25:49.651Z,21.40
2018-07-09T08:28:20.077Z,21.40
2018-07-09T08:30:50.498Z,21.50
2018-07-09T08:33:20.898Z,21.50
2018-07-09T08:35:51.232Z,21.60
2018-07-09T08:38:21.730Z,21.70
2018-07-09T08:43:22.076Z,21.80
2018-07-09T08:45:52.484Z,21.90
2018-07-09T08:48:22.876Z,21.90
2018-07-09T08:50:55.093Z,22.00
2018-07-09T08:55:55.574Z,22.20
2018-07-09T08:58:25.973Z,22.30
2018-07-09T09:00:56.312Z,22.40
2018-07-09T09:03:26.619Z,22.50
2018-07-09T09:05:56.967Z,22.70
2018-07-09T09:08:27.273Z,22.80
2018-07-09T09:13:27.411Z,23.10
2018-07-09T09:15:57.731Z,23.20
2018-07-09T09:18:28.066Z,23.20
2018-07-09T09:20:58.427Z,23.40
2018-07-09T09:23:28.735Z,23.50
2018-07-09T09:25:59.111Z,23.50
2018-07-09T09:28:29.507Z,23.70
2018-07-09T09:30:59.792Z,23.80
2018-07-09T09:33:30.172Z,23.80
2018-07-09T09:36:00.470Z,23.90
2018-07-09T09:38:30.946Z,23.90
2018-07-09T09:41:01.310Z,24.00
2018-07-09T09:43:31.595Z,24.00
2018-07-09T09:46:01.919Z,24.00
2018-07-09T09:48:32.214Z,24.00
2018-07-09T09:51:02.450Z,24.00
2018-07-09T09:53:32.714Z,24.00
2018-07-09T09:56:03.151Z,23.90
2018-07-09T09:58:33.471Z,23.90
2018-07-09T10:01:03.800Z,23.90
2018-07-09T10:03:34.174Z,23.90
2018-07-09T10:06:04.544Z,23.90
2018-07-09T10:08:34.906Z,23.90
2018-07-09T10:11:05.730Z,23.90
2018-07-09T10:13:35.982Z,23.90
2018-07-09T10:16:06.746Z,23.90
2018-07-09T10:21:07.348Z,24.00
2018-07-09T10:23:37.621Z,24.00
2018-07-09T10:26:07.995Z,23.90
2018-07-09T10:28:38.310Z,23.90
2018-07-09T10:31:08.676Z,24.00
2018-07-09T10:33:38.927Z,24.00
2018-07-09T10:36:09.216Z,24.00
2018-07-09T10:38:39.434Z,24.10
2018-07-09T10:41:09.855Z,24.10
2018-07-09T10:43:40.290Z,24.10
2018-07-09T10:46:10.639Z,24.20
2018-07-09T10:48:40.938Z,24.20
2018-07-09T10:51:11.496Z,24.20
2018-07-09T10:53:41.796Z,24.20
2018-07-09T10:56:12.042Z,24.30
2018-07-09T10:58:42.338Z,24.30
2018-07-09T11:01:12.623Z,24.20
2018-07-09T11:03:42.984Z,24.20
2018-07-09T11:06:13.341Z,24.10
2018-07-09T11:08:43.740Z,24.10
2018-07-09T11:11:14.178Z,24.10
2018-07-09T11:13:44.514Z,24.10
2018-07-09T11:16:14.871Z,24.20
2018-07-09T11:23:45.215Z,24.00
2018-07-09T11:26:15.481Z,23.90
2018-07-09T11:28:45.872Z,23.80
2018-07-09T11:31:16.170Z,23.90
2018-07-09T11:33:46.438Z,23.80
2018-07-09T11:36:16.800Z,23.80
2018-07-09T11:38:47.049Z,23.70
2018-07-09T11:41:17.627Z,23.70
2018-07-09T11:43:47.887Z,23.70
2018-07-09T11:46:18.128Z,23.60
2018-07-09T11:48:48.380Z,23.60
2018-07-09T11:51:18.690Z,23.50
2018-07-09T11:53:48.995Z,23.50
2018-07-09T11:56:19.258Z,23.50
2018-07-09T11:58:49.579Z,23.50
2018-07-09T12:01:19.753Z,23.50
2018-07-09T12:03:50.082Z,23.50
2018-07-09T12:06:20.405Z,23.50
2018-07-09T12:08:50.612Z,23.50
2018-07-09T12:11:20.936Z,23.60
2018-07-09T12:13:51.273Z,23.70
2018-07-09T12:16:21.487Z,23.70
2018-07-09T12:18:51.710Z,23.80
2018-07-09T12:21:22.083Z,23.90
2018-07-09T12:23:52.396Z,24.00
2018-07-09T12:26:22.611Z,24.00
2018-07-09T12:28:53.013Z,24.10
2018-07-09T12:31:23.217Z,24.10
2018-07-09T12:33:53.640Z,24.20
2018-07-09T12:36:24.144Z,24.20
2018-07-09T12:38:54.263Z,24.30
2018-07-09T12:41:24.591Z,24.30
2018-07-09T12:43:54.934Z,24.30
2018-07-09T12:46:25.230Z,24.30
2018-07-09T12:48:55.435Z,24.30
2018-07-09T12:51:25.832Z,24.40
2018-07-09T12:53:56.111Z,24.40
2018-07-09T12:56:26.341Z,24.40
2018-07-09T12:58:56.911Z,24.40
2018-07-09T13:01:27.202Z,24.40
2018-07-09T13:03:57.391Z,24.50
2018-07-09T13:06:27.705Z,24.50
2018-07-09T13:11:27.900Z,24.70
2018-07-09T13:13:58.177Z,24.70
2018-07-09T13:16:28.442Z,24.80
2018-07-09T13:18:58.642Z,24.80
2018-07-09T13:21:29.039Z,24.90
2018-07-09T13:26:29.291Z,25.00
2018-07-09T13:28:59.896Z,25.00
2018-07-09T13:31:30.473Z,25.00
2018-07-09T13:34:00.832Z,25.10
2018-07-09T13:36:31.177Z,25.10
2018-07-09T13:39:01.619Z,25.10
2018-07-09T13:41:32.031Z,25.10
2018-07-09T13:44:02.374Z,25.10
2018-07-09T13:46:32.767Z,25.10
2018-07-09T13:49:03.198Z,25.10
2018-07-09T13:51:33.632Z,25.10
2018-07-09T13:54:04.100Z,25.10
2018-07-09T13:56:34.588Z,25.00
2018-07-09T13:59:04.977Z,25.00
2018-07-09T14:01:35.209Z,25.00
2018-07-09T14:04:05.633Z,25.00
2018-07-09T14:06:36.023Z,24.90
2018-07-09T14:09:07.015Z,24.90
2018-07-09T14:11:37.310Z,24.90
2018-07-09T14:14:08.150Z,24.90
2018-07-09T14:16:38.528Z,24.90
2018-07-09T14:19:25.000Z,24.90
2018-07-09T14:21:55.391Z,24.80
2018-07-09T14:24:25.768Z,24.80
2018-07-09T14:26:56.089Z,24.80
2018-07-09T14:29:26.313Z,24.80
2018-07-09T14:31:56.589Z,24.80
2018-07-09T14:34:26.887Z,24.80
2018-07-09T14:36:57.257Z,24.70
2018-07-09T14:39:27.591Z,24.60
2018-07-09T14:41:57.951Z,24.60
2018-07-09T14:44:28.257Z,24.50
2018-07-09T14:46:58.673Z,24.40
2018-07-09T14:49:28.952Z,24.40
2018-07-09T14:52:00.152Z,24.40
2018-07-09T14:57:00.211Z,24.30
2018-07-09T15:02:00.413Z,24.20
2018-07-09T15:04:30.711Z,24.20
2018-07-09T15:07:01.081Z,24.20
2018-07-09T15:09:31.414Z,24.20
2018-07-09T15:12:01.729Z,24.20
2018-07-09T15:14:32.227Z,24.20
2018-07-09T15:17:02.787Z,24.20
2018-07-09T15:19:33.089Z,24.20
2018-07-09T15:22:03.447Z,24.30
2018-07-09T15:24:33.759Z,24.30
2018-07-09T15:27:10.701Z,24.30
2018-07-09T15:29:41.380Z,24.30
2018-07-09T15:32:27.662Z,24.40
2018-07-09T15:34:58.096Z,24.40
2018-07-09T15:37:29.232Z,24.40
2018-07-09T15:39:59.558Z,24.50
2018-07-09T15:42:29.919Z,24.50
2018-07-09T15:45:00.243Z,24.50
2018-07-09T15:47:30.544Z,24.50
2018-07-09T15:50:00.869Z,24.40
2018-07-09T15:52:31.276Z,24.50
2018-07-09T15:55:06.851Z,24.40
2018-07-09T15:57:37.171Z,24.50
2018-07-09T16:00:07.582Z,24.50
2018-07-09T16:02:37.809Z,24.40
2018-07-09T16:05:08.176Z,24.40
2018-07-09T16:07:38.430Z,24.20
2018-07-09T16:10:08.654Z,24.20
2018-07-09T16:12:38.899Z,24.10
2018-07-09T16:15:09.106Z,24.00
2018-07-09T16:17:39.336Z,23.90
2018-07-09T16:20:09.595Z,23.80
2018-07-09T16:22:39.829Z,23.70
2018-07-09T16:25:10.070Z,23.70
2018-07-09T16:27:40.285Z,23.60
2018-07-09T16:30:10.537Z,23.60
2018-07-09T16:32:40.812Z,23.60
2018-07-09T16:37:40.814Z,23.80
2018-07-09T16:40:11.111Z,23.80
2018-07-09T16:42:41.320Z,23.80
2018-07-09T16:45:11.573Z,23.90
2018-07-09T16:47:41.872Z,23.90
2018-07-09T16:50:12.092Z,24.00
2018-07-09T16:52:42.400Z,24.00
2018-07-09T16:55:12.563Z,24.00
2018-07-09T16:57:42.768Z,24.00
2018-07-09T17:00:13.073Z,24.10
2018-07-09T17:02:43.324Z,24.10
2018-07-09T17:05:13.591Z,24.10
2018-07-09T17:07:43.845Z,24.10
2018-07-09T17:10:14.035Z,24.10
2018-07-09T17:12:44.294Z,24.10
2018-07-09T17:15:14.641Z,24.00
2018-07-09T17:17:44.892Z,24.00
2018-07-09T17:20:15.282Z,23.90
2018-07-09T17:22:45.711Z,23.90
2018-07-09T17:25:15.998Z,23.80
2018-07-09T17:27:46.412Z,23.80
2018-07-09T17:30:16.736Z,23.80
2018-07-09T17:32:47.132Z,23.70
2018-07-09T17:35:17.476Z,23.70
2018-07-09T17:37:47.877Z,23.70
2018-07-09T17:40:18.711Z,23.60
2018-07-09T17:42:49.159Z,23.60
2018-07-09T17:45:19.410Z,23.60
2018-07-09T17:47:49.706Z,23.50
2018-07-09T17:50:20.063Z,23.50
2018-07-09T17:52:51.384Z,23.40
2018-07-09T17:55:21.776Z,23.30
2018-07-09T17:57:52.358Z,23.20
2018-07-09T18:00:22.935Z,23.10
2018-07-09T18:02:53.471Z,23.00
2018-07-09T18:05:23.941Z,22.80
2018-07-09T18:07:54.654Z,22.70
2018-07-09T18:10:25.148Z,22.60
2018-07-09T18:12:55.698Z,22.50
2018-07-09T18:15:26.146Z,22.40
2018-07-09T18:17:56.638Z,22.30
2018-07-09T18:20:27.071Z,22.20
2018-07-09T18:22:58.241Z,22.20
2018-07-09T18:25:28.744Z,22.10
2018-07-09T18:27:59.275Z,22.00
2018-07-09T18:30:29.750Z,22.00
2018-07-09T18:33:00.221Z,22.00
2018-07-09T18:35:30.803Z,21.90
2018-07-09T18:38:01.257Z,21.80
2018-07-09T18:40:31.695Z,21.70
2018-07-09T18:43:02.153Z,21.60
2018-07-09T18:45:32.611Z,21.60
2018-07-09T18:48:03.070Z,21.60
2018-07-09T18:50:33.551Z,21.50
2018-07-09T18:53:04.001Z,21.50
2018-07-09T18:55:34.537Z,21.40
2018-07-09T18:58:05.083Z,21.30
2018-07-09T19:00:35.511Z,21.30
2018-07-09T19:03:05.981Z,21.30
2018-07-09T19:06:51.294Z,21.20
2018-07-09T19:09:22.269Z,21.20
2018-07-09T19:11:52.755Z,21.20
2018-07-09T19:14:27.601Z,21.10
2018-07-09T19:18:14.250Z,21.10
2018-07-09T19:21:31.966Z,21.00
2018-07-09T19:24:00.581Z,20.90
2018-07-09T19:26:28.740Z,20.80
2018-07-09T19:28:56.877Z,20.80
2018-07-09T19:31:25.002Z,20.70
2018-07-09T19:33:53.132Z,20.70
2018-07-09T19:36:21.257Z,20.70
2018-07-09T19:38:49.431Z,20.70
2018-07-09T19:41:17.555Z,20.70
2018-07-09T19:43:45.796Z,20.60
2018-07-09T19:46:13.917Z,20.60
2018-07-09T19:48:42.034Z,20.50
2018-07-09T19:51:10.214Z,20.50
2018-07-09T19:53:38.321Z,20.50
2018-07-09T19:56:06.484Z,20.40
2018-07-09T19:58:34.609Z,20.40
2018-07-09T20:01:02.736Z,20.40
2018-07-09T20:03:30.940Z,20.40
2018-07-09T20:05:59.181Z,20.30
2018-07-09T20:08:32.360Z,20.30
2018-07-09T20:11:05.429Z,20.20
2018-07-09T20:13:51.648Z,20.20
2018-07-09T20:16:24.770Z,20.20
2018-07-09T20:18:53.903Z,20.20
2018-07-09T20:21:22.033Z,20.10
2018-07-09T20:23:50.165Z,20.10
2018-07-09T20:26:18.319Z,20.00
2018-07-09T20:28:46.435Z,20.00
2018-07-09T20:31:14.528Z,20.00
2018-07-09T20:33:42.620Z,20.00
2018-07-09T20:36:10.792Z,19.90
2018-07-09T20:38:38.956Z,19.90
2018-07-09T20:41:07.080Z,19.80
2018-07-09T20:43:35.187Z,19.90
2018-07-09T20:46:03.362Z,19.80
2018-07-09T20:50:59.820Z,19.80
2018-07-09T20:55:56.352Z,19.60
2018-07-09T20:58:24.479Z,19.60
2018-07-09T21:00:52.570Z,19.50
2018-07-09T21:03:20.761Z,19.50
2018-07-09T21:05:48.928Z,19.40
2018-07-09T21:08:17.030Z,19.30
2018-07-09T21:10:45.251Z,19.20
2018-07-09T21:13:13.373Z,19.10
2018-07-09T21:15:41.575Z,19.10
2018-07-09T21:18:09.710Z,19.00
2018-07-09T21:20:37.831Z,18.90
2018-07-09T21:23:05.911Z,18.80
2018-07-09T21:25:34.036Z,18.80
2018-07-09T21:28:02.206Z,18.80
2018-07-09T21:30:30.333Z,18.70
2018-07-09T21:32:58.512Z,18.70
2018-07-09T21:35:26.592Z,18.70
2018-07-09T21:37:54.802Z,18.70
2018-07-09T21:40:22.908Z,18.60
2018-07-09T21:42:51.145Z,18.60
2018-07-09T21:45:19.256Z,18.60
2018-07-09T21:47:47.411Z,18.60
2018-07-09T21:50:15.511Z,18.60
2018-07-09T21:52:43.639Z,18.60
2018-07-09T21:55:11.767Z,18.60
2018-07-09T21:57:39.855Z,18.60
2018-07-09T22:00:08.008Z,18.60
2018-07-09T22:02:36.154Z,18.60
2018-07-09T22:05:04.260Z,18.50
2018-07-09T22:07:32.408Z,18.50
2018-07-09T22:10:00.484Z,18.50
2018-07-09T22:12:28.604Z,18.40
2018-07-09T22:14:56.751Z,18.40
2018-07-09T22:17:24.886Z,18.40
2018-07-09T22:22:21.448Z,18.30
2018-07-09T22:24:49.562Z,18.30
2018-07-09T22:27:17.691Z,18.30
2018-07-09T22:29:45.842Z,18.30
2018-07-09T22:32:16.245Z,18.20
2018-07-09T22:34:46.547Z,18.30
2018-07-09T22:37:16.930Z,18.20
2018-07-09T22:39:47.359Z,18.20
2018-07-09T22:42:17.990Z,18.20
2018-07-09T22:44:48.623Z,18.20
2018-07-09T22:47:18.861Z,18.10
2018-07-09T22:49:49.136Z,18.10
2018-07-09T22:52:19.477Z,18.10
2018-07-09T22:55:01.184Z,18.00
2018-07-09T22:57:31.496Z,18.00
2018-07-09T23:00:01.859Z,18.00
2018-07-09T23:05:02.143Z,18.00
2018-07-09T23:07:35.331Z,17.90
2018-07-09T23:10:22.071Z,17.90
2018-07-09T23:13:50.031Z,17.90
2018-07-09T23:18:01.783Z,17.80
2018-07-09T23:22:54.108Z,17.80
2018-07-09T23:25:22.251Z,17.70
2018-07-09T23:27:50.349Z,17.70
2018-07-09T23:30:18.428Z,17.70
2018-07-09T23:32:46.553Z,17.70
2018-07-09T23:35:14.663Z,17.70
2018-07-09T23:37:42.756Z,17.70
2018-07-09T23:40:10.860Z,17.70
2018-07-09T23:42:38.940Z,17.60
2018-07-09T23:45:07.039Z,17.60
2018-07-09T23:47:35.147Z,17.60
2018-07-09T23:50:03.212Z,17.60
2018-07-09T23:52:31.295Z,17.60
2018-07-09T23:54:59.379Z,17.60
2018-07-09T23:59:50.125Z,17.50
